Time;durP1;ratioP1;P1;durP2;ratioP2;P2;SDS_P1;SDS_P2;PMS_P1;PMS_P2;Temp;Humidity;BMP_temperature;BMP_pressure;BME280_temperature;BME280_humidity;BME280_pressure;Samples;Min_cycle;Max_cycle;Signal;HPM_P1;HPM_P2
2022/01/19 00:00:26;;;;;;;11.60;4.70;;;;;;;2.03;96.65;100849.77;104767;1277;72992;-69
2022/01/19 00:03:15;;;;;;;10.70;4.70;;;;;;;2.06;96.37;100844.98;104777;1278;60126;-69
2022/01/19 00:06:05;;;;;;;11.20;3.40;;;;;;;2.09;96.17;100841.23;104579;1277;59382;-69
2022/01/19 00:08:55;;;;;;;11.70;4.50;;;;;;;2.11;95.79;100839.41;104591;1277;72024;-70
2022/01/19 00:11:45;;;;;;;10.70;4.10;;;;;;;2.14;95.74;100840.73;104386;1278;68154;-70
2022/01/19 00:14:35;;;;;;;9.20;3.90;;;;;;;2.15;95.82;100833.34;104607;1277;73528;-70
2022/01/19 00:17:24;;;;;;;15.20;4.70;;;;;;;2.16;95.55;100833.83;104426;1277;60081;-70
2022/01/19 00:20:17;;;;;;;9.20;4.40;;;;;;;2.18;95.53;100831.31;104139;1280;59329;-70
2022/01/19 00:23:06;;;;;;;10.50;4.10;;;;;;;2.21;95.40;100833.32;104305;1279;71233;-70
2022/01/19 00:25:56;;;;;;;11.60;4.20;;;;;;;2.24;95.29;100829.06;104441;1278;67043;-70
2022/01/19 00:28:45;;;;;;;11.00;3.70;;;;;;;2.25;95.30;100825.16;104838;1274;72850;-70
2022/01/19 00:31:38;;;;;;;9.40;4.10;;;;;;;2.27;95.27;100819.83;104873;1273;59800;-70
2022/01/19 00:34:28;;;;;;;10.50;3.50;;;;;;;2.28;95.14;100814.36;104858;1274;59831;-70
2022/01/19 00:37:18;;;;;;;12.80;4.40;;;;;;;2.30;95.02;100816.40;104878;1274;71410;-70
2022/01/19 00:40:14;;;;;;;8.90;3.70;;;;;;;2.33;94.80;100818.07;105105;1274;67114;-70
2022/01/19 00:43:35;;;;;;;7.90;3.30;;;;;;;2.35;94.62;100813.10;104957;1274;73092;-70
2022/01/19 00:46:54;;;;;;;9.70;3.60;;;;;;;2.36;94.53;100811.49;104976;1274;59857;-70
2022/01/19 00:49:46;;;;;;;11.20;3.60;;;;;;;2.35;94.69;100797.35;104771;1274;59536;-71
2022/01/19 00:52:36;;;;;;;11.30;3.00;;;;;;;2.36;94.56;100794.85;105313;1274;69988;-70
2022/01/19 00:55:29;;;;;;;10.40;3.30;;;;;;;2.37;94.62;100792.55;104954;1274;66868;-70
2022/01/19 00:58:20;;;;;;;9.80;3.20;;;;;;;2.38;94.67;100791.63;104877;1274;72984;-70
2022/01/19 01:01:10;;;;;;;10.20;3.70;;;;;;;2.40;94.77;100780.73;104833;1274;59926;-70
2022/01/19 01:04:00;;;;;;;6.50;2.70;;;;;;;2.42;94.57;100777.34;104862;1275;59344;-70
2022/01/19 01:06:53;;;;;;;9.00;2.60;;;;;;;2.43;94.61;100777.49;104936;1274;71249;-70
2022/01/19 01:09:46;;;;;;;9.80;3.10;;;;;;;2.41;94.60;100768.42;104822;1274;66945;-70
2022/01/19 01:12:50;;;;;;;7.70;2.70;;;;;;;2.44;94.54;100775.86;104945;1274;71691;-70
2022/01/19 01:18:56;;;;;;;7.70;2.80;;;;;;;2.44;94.94;100768.50;105322;1274;59452;-70
2022/01/19 01:21:46;;;;;;;11.60;3.60;;;;;;;2.45;95.07;100771.11;105037;1273;72251;-70
2022/01/19 01:24:38;;;;;;;11.50;3.00;;;;;;;2.45;95.02;100759.55;104787;1274;66679;-70
2022/01/19 01:27:28;;;;;;;13.30;3.80;;;;;;;2.47;94.98;100761.40;104910;1274;71631;-70
2022/01/19 01:30:18;;;;;;;13.30;3.70;;;;;;;2.47;95.06;100754.72;104897;1274;59809;-70
2022/01/19 01:33:11;;;;;;;11.00;3.30;;;;;;;2.49;95.02;100752.56;104822;1274;59379;-70
2022/01/19 01:36:02;;;;;;;10.20;3.40;;;;;;;2.48;94.97;100759.77;104826;1275;71189;-69
2022/01/19 01:38:51;;;;;;;7.60;2.70;;;;;;;2.49;95.04;100762.56;104703;1274;66994;-70
2022/01/19 01:41:42;;;;;;;10.00;3.70;;;;;;;2.48;94.97;100756.98;105124;1274;72830;-70
2022/01/19 01:44:38;;;;;;;10.60;3.70;;;;;;;2.49;94.99;100756.08;104918;1274;60135;-71
2022/01/19 01:47:32;;;;;;;14.00;3.50;;;;;;;2.52;94.94;100745.13;104828;1274;59390;-70
2022/01/19 01:54:11;;;;;;;11.50;3.00;;;;;;;2.54;94.72;100739.42;104787;1274;66647;-70
2022/01/19 01:57:07;;;;;;;11.00;4.30;;;;;;;2.56;94.49;100729.39;104992;1274;71754;-69
2022/01/19 01:59:57;;;;;;;10.20;3.20;;;;;;;2.56;94.56;100727.27;104743;1274;60967;-70
2022/01/19 02:03:05;;;;;;;13.00;3.40;;;;;;;2.56;94.42;100725.70;105044;1274;59383;-69
2022/01/19 02:06:20;;;;;;;9.20;3.10;;;;;;;2.57;94.42;100708.35;105169;1275;72700;-69
2022/01/19 02:09:26;;;;;;;10.90;3.20;;;;;;;2.57;94.34;100695.55;105141;1274;66305;-69
2022/01/19 02:24:44;;;;;;;10.80;3.60;;;;;;;2.53;94.67;100680.08;104910;1274;66487;-69
2022/01/19 02:40:22;;;;;;;9.00;3.00;;;;;;;2.45;94.42;100690.52;104866;1275;67996;-69
2022/01/19 02:43:20;;;;;;;12.30;3.40;;;;;;;2.43;94.59;100672.92;104907;1274;73315;-70
2022/01/19 02:49:20;;;;;;;12.70;3.60;;;;;;;2.40;94.45;100658.29;104932;1274;59410;-69
2022/01/19 02:52:11;;;;;;;10.80;3.70;;;;;;;2.39;94.43;100649.91;105102;1274;72662;-70
2022/01/19 02:55:00;;;;;;;10.60;3.30;;;;;;;2.37;94.43;100650.69;104871;1274;68232;-70
2022/01/19 02:57:51;;;;;;;9.00;3.10;;;;;;;2.35;94.31;100642.36;104810;1274;72939;-69
2022/01/19 03:09:48;;;;;;;10.90;3.70;;;;;;;2.29;94.58;100629.43;104571;1277;68210;-69
2022/01/19 03:12:37;;;;;;;12.80;3.70;;;;;;;2.27;94.54;100626.34;104781;1274;72331;-68
2022/01/19 03:15:27;;;;;;;10.70;4.20;;;;;;;2.25;94.46;100627.09;104936;1275;59809;-68
2022/01/19 03:18:17;;;;;;;11.50;4.40;;;;;;;2.21;94.56;100620.23;104995;1274;59592;-68
2022/01/19 03:21:09;;;;;;;12.10;4.60;;;;;;;2.17;94.65;100617.06;104661;1274;72560;-68
2022/01/19 03:24:00;;;;;;;11.60;4.30;;;;;;;2.12;94.81;100609.52;104703;1274;66634;-68
2022/01/19 03:26:49;;;;;;;11.30;4.40;;;;;;;2.09;94.62;100606.83;104874;1274;73008;-68
2022/01/19 03:29:55;;;;;;;9.20;4.00;;;;;;;2.02;94.96;100598.79;105039;1275;59977;-68
2022/01/19 03:32:45;;;;;;;14.50;5.30;;;;;;;1.97;95.25;100597.92;104795;1274;59468;-69
2022/01/19 03:35:38;;;;;;;19.60;6.00;;;;;;;1.93;95.24;100596.66;104864;1274;72597;-69
2022/01/19 03:38:28;;;;;;;16.40;5.10;;;;;;;1.90;95.48;100599.94;104802;1274;68322;-69
2022/01/19 03:41:17;;;;;;;24.60;7.00;;;;;;;1.87;95.45;100608.23;104778;1274;72899;-69
2022/01/19 03:44:08;;;;;;;20.10;6.80;;;;;;;1.84;95.93;100611.11;104670;1274;59771;-68
2022/01/19 03:47:00;;;;;;;13.10;4.60;;;;;;;1.83;96.07;100608.71;104895;1274;61069;-68
2022/01/19 03:49:50;;;;;;;15.20;6.20;;;;;;;1.82;96.36;100609.79;104899;1274;72649;-68
2022/01/19 03:52:40;;;;;;;17.60;6.80;;;;;;;1.83;96.56;100606.28;104880;1274;68493;-68
2022/01/19 03:55:30;;;;;;;12.60;4.90;;;;;;;1.83;96.45;100594.36;104938;1274;73090;-69
2022/01/19 03:58:22;;;;;;;14.80;4.80;;;;;;;1.84;96.84;100587.16;104764;1275;59266;-69
2022/01/19 04:01:12;;;;;;;14.20;4.40;;;;;;;1.82;96.89;100581.26;105010;1274;60624;-69
2022/01/19 04:09:55;;;;;;;10.70;4.40;;;;;;;1.86;96.84;100578.17;104752;1274;73113;-70
2022/01/19 04:12:53;;;;;;;13.60;4.60;;;;;;;1.87;96.82;100574.98;104671;1274;59420;-69
2022/01/19 04:15:43;;;;;;;15.30;5.60;;;;;;;1.88;96.74;100579.52;104965;1274;60939;-70
2022/01/19 04:18:33;;;;;;;15.50;5.50;;;;;;;1.88;96.51;100575.14;105059;1274;72800;-70
2022/01/19 04:21:23;;;;;;;14.70;5.40;;;;;;;1.86;96.61;100569.92;104891;1274;67067;-69
2022/01/19 04:24:14;;;;;;;17.20;6.00;;;;;;;1.85;96.93;100567.35;104944;1274;71954;-69
2022/01/19 04:30:20;;;;;;;19.20;6.20;;;;;;;1.85;96.71;100558.58;105194;1274;61140;-69
2022/01/19 04:33:17;;;;;;;18.90;6.40;;;;;;;1.86;96.54;100550.70;105467;1274;72871;-69
2022/01/19 04:36:25;;;;;;;16.10;6.00;;;;;;;1.87;96.50;100552.04;105000;1274;68234;-69
2022/01/19 04:43:52;;;;;;;14.00;5.10;;;;;;;1.88;96.26;100543.64;104703;1273;73445;-71
2022/01/19 04:46:05;;;;;;;9.80;4.00;;;;;;;1.88;96.21;100552.22;104787;1274;60293;-69
2022/01/19 04:54:16;;;;;;;10.90;4.50;;;;;;;1.86;96.50;100549.64;104861;1274;72691;-69
2022/01/19 05:08:20;;;;;;;15.00;6.60;;;;;;;1.78;96.18;100531.88;105189;1273;68156;-70
2022/01/19 05:14:19;;;;;;;16.60;6.60;;;;;;;1.73;96.55;100529.80;105226;1274;59215;-71
2022/01/19 05:17:08;;;;;;;18.20;6.10;;;;;;;1.71;96.45;100530.38;105484;1274;59490;-70
2022/01/19 05:19:58;;;;;;;15.70;6.40;;;;;;;1.68;96.62;100524.86;105265;1274;72691;-70
2022/01/19 05:22:48;;;;;;;14.20;7.00;;;;;;;1.66;96.54;100525.11;105353;1273;68302;-70
2022/01/19 05:25:39;;;;;;;15.10;6.90;;;;;;;1.64;96.55;100522.20;105341;1273;71987;-70
2022/01/19 05:28:33;;;;;;;14.60;5.60;;;;;;;1.62;96.73;100514.59;105284;1273;59376;-69
2022/01/19 05:31:46;;;;;;;16.90;6.30;;;;;;;1.60;96.93;100509.55;105106;1274;59442;-70
2022/01/19 05:35:52;;;;;;;12.40;5.70;;;;;;;1.60;96.83;100496.48;105339;1274;73053;-70
2022/01/19 05:38:57;;;;;;;16.30;6.50;;;;;;;1.58;96.80;100495.12;105627;1274;68050;-71
2022/01/19 05:42:14;;;;;;;15.70;6.70;;;;;;;1.56;97.04;100496.25;105304;1274;72913;-71
2022/01/19 05:45:21;;;;;;;16.20;6.30;;;;;;;1.55;97.06;100498.03;105055;1274;59433;-71
2022/01/19 05:48:30;;;;;;;16.60;7.10;;;;;;;1.52;97.12;100497.75;105108;1274;60227;-72
2022/01/19 05:55:25;;;;;;;15.80;7.00;;;;;;;1.47;97.24;100487.10;105427;1274;66944;-70
2022/01/19 05:58:20;;;;;;;17.20;7.00;;;;;;;1.46;97.27;100485.20;104804;1273;72690;-69
2022/01/19 06:01:19;;;;;;;16.10;7.30;;;;;;;1.45;97.04;100481.73;105156;1273;59807;-70
2022/01/19 06:04:12;;;;;;;18.20;7.20;;;;;;;1.43;97.21;100473.08;105279;1271;59484;-70
2022/01/19 06:07:28;;;;;;;18.60;7.50;;;;;;;1.41;97.15;100471.02;105418;1271;72530;-70
2022/01/19 06:13:39;;;;;;;15.50;7.40;;;;;;;1.38;97.25;100474.27;105379;1274;71566;-70
2022/01/19 06:16:28;;;;;;;18.20;7.90;;;;;;;1.34;97.29;100467.40;105136;1271;59288;-69
2022/01/19 06:19:19;;;;;;;19.10;8.40;;;;;;;1.33;97.13;100457.48;105045;1271;59627;-70
2022/01/19 06:22:08;;;;;;;18.70;8.10;;;;;;;1.30;97.18;100448.15;105018;1271;71282;-70
2022/01/19 06:24:58;;;;;;;18.90;8.00;;;;;;;1.28;97.17;100440.52;105183;1271;67480;-70
2022/01/19 06:27:48;;;;;;;18.00;6.40;;;;;;;1.26;97.36;100436.92;105893;1271;71668;-70
2022/01/19 06:30:37;;;;;;;18.60;8.00;;;;;;;1.23;97.32;100436.84;105325;1274;59845;-70
2022/01/19 06:33:27;;;;;;;19.90;8.10;;;;;;;1.21;97.31;100433.40;105008;1270;59393;-70
2022/01/19 06:36:19;;;;;;;16.40;6.40;;;;;;;1.19;97.32;100428.39;105226;1271;73168;-71
2022/01/19 06:39:27;;;;;;;15.80;5.80;;;;;;;1.17;97.59;100431.24;105364;1271;66944;-72
2022/01/19 06:42:32;;;;;;;19.60;8.20;;;;;;;1.16;97.47;100422.38;105104;1271;71802;-71
2022/01/19 06:45:23;;;;;;;20.10;8.00;;;;;;;1.16;97.77;100420.61;105523;1271;59960;-71
2022/01/19 06:48:22;;;;;;;18.10;7.80;;;;;;;1.16;97.23;100415.89;105072;1271;59533;-70
2022/01/19 06:51:11;;;;;;;16.30;7.40;;;;;;;1.15;97.42;100413.15;105391;1271;72222;-72
2022/01/19 06:54:14;;;;;;;18.60;7.80;;;;;;;1.12;97.34;100408.17;105369;1270;67193;-72
2022/01/19 06:57:04;;;;;;;15.60;6.90;;;;;;;1.09;97.15;100406.70;105019;1274;71799;-70
2022/01/19 06:59:58;;;;;;;16.20;6.30;;;;;;;1.05;97.29;100400.21;105674;1271;59342;-71
2022/01/19 07:03:36;;;;;;;16.30;7.10;;;;;;;1.01;97.47;100402.91;105306;1273;59348;-71
2022/01/19 07:06:38;;;;;;;15.10;7.10;;;;;;;0.98;97.42;100392.70;105228;1274;71219;-71
2022/01/19 07:10:09;;;;;;;17.90;7.30;;;;;;;0.96;97.39;100387.02;105351;1274;69129;-69
2022/01/19 07:13:04;;;;;;;18.10;7.60;;;;;;;0.94;97.29;100385.88;104724;1274;73090;-70
2022/01/19 07:15:54;;;;;;;14.90;6.50;;;;;;;0.91;97.54;100386.66;105491;1273;59471;-69
2022/01/19 07:18:44;;;;;;;15.90;6.80;;;;;;;0.89;97.63;100382.36;104970;1274;60042;-69
2022/01/19 07:21:36;;;;;;;19.40;7.90;;;;;;;0.87;97.68;100381.56;105150;1273;72950;-68
2022/01/19 07:24:25;;;;;;;18.50;7.70;;;;;;;0.86;97.74;100382.11;104905;1273;67908;-69
2022/01/19 07:27:15;;;;;;;18.90;8.30;;;;;;;0.87;97.50;100382.27;105090;1274;72868;-69
2022/01/19 07:30:06;;;;;;;17.00;8.00;;;;;;;0.87;97.56;100384.02;104681;1273;59807;-69
2022/01/19 07:32:56;;;;;;;17.30;8.00;;;;;;;0.88;97.41;100376.99;104962;1273;59727;-69
2022/01/19 07:35:51;;;;;;;19.00;7.80;;;;;;;0.89;97.31;100374.16;105017;1273;71287;-69
2022/01/19 07:38:40;;;;;;;18.90;8.70;;;;;;;0.88;97.08;100363.36;105408;1274;68029;-69
2022/01/19 07:41:30;;;;;;;17.40;7.10;;;;;;;0.89;96.92;100364.36;105041;1274;73032;-68
2022/01/19 07:44:35;;;;;;;16.60;7.10;;;;;;;0.90;96.90;100358.07;105281;1274;59950;-69
2022/01/19 07:47:43;;;;;;;18.00;7.90;;;;;;;0.93;96.72;100358.13;104981;1274;60704;-69
2022/01/19 07:50:56;;;;;;;17.20;7.90;;;;;;;0.97;96.50;100358.84;105300;1272;70988;-69
2022/01/19 07:54:17;;;;;;;16.50;7.10;;;;;;;1.03;96.26;100354.13;105659;1273;66340;-70
2022/01/19 07:57:45;;;;;;;19.10;8.70;;;;;;;1.12;96.15;100349.27;105543;1274;71146;-68
2022/01/19 08:00:56;;;;;;;14.00;6.40;;;;;;;1.16;95.82;100345.98;105486;1274;59908;-69
2022/01/19 08:04:13;;;;;;;18.40;7.80;;;;;;;1.17;95.35;100335.30;105495;1273;59702;-70
2022/01/19 08:07:03;;;;;;;21.60;8.00;;;;;;;1.17;95.15;100336.17;104970;1274;72632;-70
2022/01/19 08:09:53;;;;;;;13.50;5.80;;;;;;;1.19;95.04;100332.95;104776;1273;65897;-69
2022/01/19 08:12:43;;;;;;;19.00;7.90;;;;;;;1.21;94.96;100338.31;104796;1273;72998;-70
2022/01/19 08:15:32;;;;;;;18.50;7.40;;;;;;;1.24;94.91;100332.61;105014;1274;59320;-68
2022/01/19 08:18:25;;;;;;;16.20;7.30;;;;;;;1.23;94.68;100332.30;105088;1274;59394;-68
2022/01/19 08:21:14;;;;;;;15.60;7.40;;;;;;;1.23;94.78;100333.70;105123;1274;70595;-68
2022/01/19 08:24:10;;;;;;;17.90;8.10;;;;;;;1.23;94.55;100334.58;104652;1274;68300;-68
2022/01/19 08:27:01;;;;;;;21.10;8.90;;;;;;;1.21;94.52;100329.91;105117;1274;73148;-68
2022/01/19 08:29:59;;;;;;;20.20;8.30;;;;;;;1.22;94.52;100318.52;104822;1274;59812;-69
2022/01/19 08:32:49;;;;;;;20.10;8.30;;;;;;;1.24;94.43;100314.95;103493;1274;1003180;-70
2022/01/19 08:35:42;;;;;;;20.80;8.30;;;;;;;1.27;94.26;100311.35;104963;1274;71104;-69
2022/01/19 08:38:50;;;;;;;22.00;8.70;;;;;;;1.33;94.15;100308.70;105033;1273;66037;-69
2022/01/19 08:41:48;;;;;;;21.30;8.70;;;;;;;1.40;93.93;100300.07;105207;1274;73020;-70
2022/01/19 08:44:39;;;;;;;19.80;7.80;;;;;;;1.49;93.48;100295.70;104910;1274;59856;-69
2022/01/19 08:47:42;;;;;;;16.60;7.20;;;;;;;1.65;93.27;100286.55;105054;1272;61190;-69
2022/01/19 08:50:35;;;;;;;15.50;7.20;;;;;;;1.78;92.38;100280.45;104860;1274;71380;-69
2022/01/19 08:53:40;;;;;;;18.90;8.10;;;;;;;1.83;91.82;100284.13;104958;1274;68613;-70
2022/01/19 08:56:41;;;;;;;14.00;6.80;;;;;;;1.90;91.51;100288.42;105125;1274;73459;-69
2022/01/19 08:59:32;;;;;;;19.20;9.10;;;;;;;1.92;90.98;100281.68;104717;1274;59819;-70
2022/01/19 09:02:24;;;;;;;18.20;9.00;;;;;;;1.95;90.58;100271.23;104883;1273;59535;-69
2022/01/19 09:05:13;;;;;;;20.50;9.80;;;;;;;1.92;90.38;100275.38;105216;1273;73104;-69
2022/01/19 09:08:05;;;;;;;17.20;8.50;;;;;;;1.97;90.56;100273.28;105307;1272;68380;-69
2022/01/19 09:10:57;;;;;;;19.80;9.80;;;;;;;1.99;90.18;100272.84;105083;1274;71582;-70
2022/01/19 09:13:48;;;;;;;21.00;10.00;;;;;;;1.98;90.03;100270.43;104567;1273;1003177;-69
2022/01/19 09:16:38;;;;;;;17.70;8.60;;;;;;;1.96;89.96;100269.80;104852;1273;59749;-71
2022/01/19 09:19:28;;;;;;;17.90;9.40;;;;;;;1.98;89.76;100268.68;104783;1274;72711;-69
2022/01/19 09:22:17;;;;;;;14.10;7.40;;;;;;;2.02;89.74;100270.61;105326;1273;66821;-70
2022/01/19 09:25:08;;;;;;;15.30;7.80;;;;;;;2.04;89.64;100265.48;105009;1273;73003;-70
2022/01/19 09:27:58;;;;;;;18.20;9.70;;;;;;;2.12;89.54;100266.24;105016;1273;59324;-70
2022/01/19 09:30:48;;;;;;;21.50;10.00;;;;;;;2.25;89.12;100260.29;104973;1273;59423;-70
2022/01/19 09:33:38;;;;;;;19.40;9.40;;;;;;;2.37;88.38;100259.63;104826;1273;72519;-69
2022/01/19 09:36:32;;;;;;;18.70;10.40;;;;;;;2.52;88.23;100263.92;102704;1273;1015937;-69
2022/01/19 09:39:27;;;;;;;21.40;9.60;;;;;;;2.90;86.72;100267.40;105157;1273;73306;-69
2022/01/19 09:42:16;;;;;;;21.60;10.40;;;;;;;3.24;85.10;100265.60;104948;1272;59342;-69
2022/01/19 09:45:05;;;;;;;16.90;8.40;;;;;;;3.44;84.05;100263.32;105056;1274;60806;-69
2022/01/19 09:47:54;;;;;;;16.50;8.40;;;;;;;3.55;82.84;100257.04;105090;1272;72471;-70
2022/01/19 09:50:43;;;;;;;19.90;10.10;;;;;;;3.67;82.34;100261.76;104896;1274;266124;-70
2022/01/19 09:53:31;;;;;;;20.50;10.30;;;;;;;3.88;81.29;100257.45;105191;1273;71386;-70
2022/01/19 09:56:20;;;;;;;18.20;9.50;;;;;;;3.93;80.25;100258.64;105254;1274;59874;-70
2022/01/19 09:59:13;;;;;;;17.80;8.90;;;;;;;4.18;80.42;100250.27;105192;1273;60961;-70
2022/01/19 10:02:09;;;;;;;21.70;9.40;;;;;;;4.49;78.69;100249.58;105655;1272;71539;-70
2022/01/19 10:05:07;;;;;;;17.90;9.50;;;;;;;4.88;77.46;100242.38;105432;1274;66687;-71
2022/01/19 10:08:00;;;;;;;18.00;9.80;;;;;;;5.45;74.91;100231.52;105207;1272;73213;-70
2022/01/19 10:11:03;;;;;;;15.90;8.30;;;;;;;5.80;73.17;100231.37;104792;1273;59329;-71
2022/01/19 10:17:11;;;;;;;17.70;9.50;;;;;;;5.93;69.99;100217.84;105440;1273;73169;-71
2022/01/19 10:20:00;;;;;;;16.70;8.70;;;;;;;5.93;70.29;100211.14;105054;1273;67129;-71
2022/01/19 10:22:50;;;;;;;19.50;10.10;;;;;;;5.88;69.75;100208.06;104942;1274;71759;-70
2022/01/19 10:25:51;;;;;;;19.20;10.40;;;;;;;5.53;70.76;100219.48;105131;1273;59387;-70
2022/01/19 10:28:59;;;;;;;19.70;10.40;;;;;;;4.95;72.10;100217.73;105031;1274;60528;-70
2022/01/19 10:31:51;;;;;;;18.30;8.60;;;;;;;4.49;73.83;100215.02;105077;1279;71464;-69
2022/01/19 10:34:40;;;;;;;18.30;9.30;;;;;;;4.14;75.54;100213.53;104579;1279;66968;-69
2022/01/19 10:37:28;;;;;;;19.00;9.10;;;;;;;3.95;76.47;100209.02;104949;1279;73668;-69
2022/01/19 10:40:22;;;;;;;18.20;9.00;;;;;;;3.79;77.53;100211.17;104668;1279;59411;-69
2022/01/19 10:43:33;;;;;;;19.10;9.60;;;;;;;3.69;78.39;100211.29;104586;1280;60423;-70
2022/01/19 10:46:25;;;;;;;20.90;10.30;;;;;;;3.64;78.91;100204.33;104736;1279;70738;-70
2022/01/19 10:49:16;;;;;;;20.20;9.40;;;;;;;3.66;79.02;100196.71;104736;1279;68785;-70
2022/01/19 10:52:05;;;;;;;18.30;9.60;;;;;;;3.70;79.20;100188.77;104441;1279;73644;-70
2022/01/19 10:54:57;;;;;;;19.80;10.40;;;;;;;3.83;78.73;100180.13;104736;1280;59446;-70
2022/01/19 10:57:53;;;;;;;20.70;10.00;;;;;;;4.10;77.84;100172.83;104686;1279;59406;-70
2022/01/19 11:00:55;;;;;;;16.90;7.90;;;;;;;4.43;76.60;100157.46;104643;1279;72439;-70
2022/01/19 11:03:45;;;;;;;17.20;8.90;;;;;;;4.94;75.08;100145.38;104568;1279;68632;-71
2022/01/19 11:06:37;;;;;;;22.40;9.90;;;;;;;5.66;73.51;100133.70;101047;1279;1016040;-71
2022/01/19 11:09:28;;;;;;;19.30;9.60;;;;;;;6.47;69.38;100126.45;104646;1273;60068;-71
2022/01/19 11:12:19;;;;;;;17.70;9.10;;;;;;;6.89;66.89;100112.98;105484;1274;60702;-71
2022/01/19 11:15:08;;;;;;;18.20;8.30;;;;;;;6.89;65.24;100112.86;105060;1274;72817;-70
2022/01/19 11:17:57;;;;;;;15.70;8.10;;;;;;;6.79;65.64;100106.03;104912;1274;67029;-69
2022/01/19 11:20:50;;;;;;;16.40;8.80;;;;;;;6.33;66.31;100098.59;105071;1274;73215;-70
2022/01/19 11:24:00;;;;;;;16.40;8.80;;;;;;;5.78;68.27;100091.69;105070;1273;59321;-70
2022/01/19 11:26:55;;;;;;;17.60;8.40;;;;;;;5.05;71.05;100084.30;105221;1274;60299;-70
2022/01/19 11:29:44;;;;;;;18.80;9.80;;;;;;;4.64;72.78;100074.16;105022;1274;71640;-71
2022/01/19 11:32:33;;;;;;;17.00;8.20;;;;;;;4.39;74.16;100071.59;105208;1273;67039;-70
2022/01/19 11:35:34;;;;;;;18.90;9.30;;;;;;;4.17;75.17;100068.52;104999;1274;73126;-70
2022/01/19 11:38:45;;;;;;;21.40;10.20;;;;;;;3.78;76.35;100053.95;105050;1273;59823;-70
2022/01/19 11:42:07;;;;;;;22.50;9.40;;;;;;;3.61;77.49;100054.30;105185;1273;61084;-70
2022/01/19 11:44:57;;;;;;;19.10;9.40;;;;;;;3.47;78.42;100035.98;104690;1279;73082;-69
2022/01/19 11:47:46;;;;;;;21.70;10.90;;;;;;;3.31;79.34;100026.59;104582;1279;66831;-70
2022/01/19 11:50:36;;;;;;;21.10;9.50;;;;;;;3.13;80.01;100020.08;104366;1279;73661;-70
2022/01/19 11:53:27;;;;;;;19.80;10.50;;;;;;;2.96;80.89;100007.58;104655;1279;59331;-70
2022/01/19 11:56:17;;;;;;;23.30;10.70;;;;;;;2.90;81.06;99998.73;104404;1279;59734;-69
2022/01/19 11:59:09;;;;;;;19.90;9.90;;;;;;;2.87;81.09;99992.75;104517;1279;71792;-70
2022/01/19 12:02:28;;;;;;;21.20;9.40;;;;;;;2.83;81.17;99982.94;104379;1279;66883;-70
2022/01/19 12:05:41;;;;;;;20.50;9.20;;;;;;;2.84;81.22;99975.55;104584;1279;72443;-69
2022/01/19 12:08:38;;;;;;;24.40;10.50;;;;;;;2.89;80.72;99968.44;104458;1279;59316;-69
2022/01/19 12:11:28;;;;;;;25.80;10.00;;;;;;;2.97;80.06;99962.29;104132;1279;59446;-69
2022/01/19 12:17:14;;;;;;;22.90;11.30;;;;;;;3.02;79.34;99954.02;104376;1279;67224;-69
2022/01/19 12:20:05;;;;;;;24.80;11.20;;;;;;;3.04;79.23;99950.73;104495;1281;72935;-69
2022/01/19 12:23:28;;;;;;;24.10;10.60;;;;;;;3.07;78.90;99941.82;104799;1273;59305;-69
2022/01/19 12:26:54;;;;;;;21.30;9.50;;;;;;;3.13;78.34;99935.23;105002;1273;59233;-69
2022/01/19 12:29:45;;;;;;;19.80;8.60;;;;;;;3.16;78.01;99920.19;105227;1273;72597;-69
2022/01/19 12:32:46;;;;;;;19.90;8.30;;;;;;;3.20;77.42;99912.10;105120;1273;67267;-69
2022/01/19 12:35:37;;;;;;;21.50;8.00;;;;;;;3.22;76.93;99903.05;104898;1273;71719;-69
2022/01/19 12:38:33;;;;;;;20.20;8.40;;;;;;;3.24;76.69;99895.27;104906;1273;59330;-69
2022/01/19 12:41:23;;;;;;;19.40;8.60;;;;;;;3.29;76.03;99889.93;104945;1273;60667;-69
2022/01/19 12:44:41;;;;;;;20.00;9.10;;;;;;;3.38;75.41;99887.52;104790;1274;72627;-69
2022/01/19 12:47:30;;;;;;;19.30;8.50;;;;;;;3.48;74.65;99878.44;104873;1273;66995;-70
2022/01/19 12:50:23;;;;;;;22.30;9.90;;;;;;;3.54;74.45;99876.58;105049;1274;71485;-70
2022/01/19 12:53:21;;;;;;;22.00;9.90;;;;;;;3.58;74.51;99868.25;104886;1273;59480;-69
2022/01/19 12:56:11;;;;;;;22.50;9.20;;;;;;;3.61;74.29;99863.74;104835;1273;59423;-69
2022/01/19 12:59:07;;;;;;;21.20;8.80;;;;;;;3.63;74.33;99861.17;105164;1273;71204;-70
2022/01/19 13:02:00;;;;;;;22.90;9.60;;;;;;;3.65;74.23;99862.64;105341;1273;67947;-70
2022/01/19 13:04:49;;;;;;;21.30;9.50;;;;;;;3.66;74.26;99863.10;104797;1273;73359;-70
2022/01/19 13:07:47;;;;;;;22.70;9.30;;;;;;;3.67;74.14;99864.83;104975;1273;59209;-71
2022/01/19 13:13:28;;;;;;;16.90;7.30;;;;;;;3.67;73.73;99860.10;105521;1273;71233;-71
2022/01/19 13:16:32;;;;;;;16.10;7.30;;;;;;;3.65;72.88;99853.70;105137;1273;68276;-70
2022/01/19 13:19:29;;;;;;;14.70;6.90;;;;;;;3.66;72.65;99853.15;104815;1273;71973;-69
2022/01/19 13:22:19;;;;;;;14.40;7.40;;;;;;;3.66;72.50;99858.39;104751;1273;59910;-70
2022/01/19 13:25:19;;;;;;;14.60;7.00;;;;;;;3.63;72.67;99848.71;105036;1273;59859;-69
2022/01/19 13:28:09;;;;;;;16.00;7.00;;;;;;;3.56;72.98;99846.63;104832;1273;72628;-70
2022/01/19 13:31:24;;;;;;;17.80;8.00;;;;;;;3.50;73.57;99840.80;104259;1272;1003011;-69
2022/01/19 13:34:13;;;;;;;13.60;6.00;;;;;;;3.42;73.89;99838.55;105351;1274;73485;-70
2022/01/19 13:37:08;;;;;;;14.80;7.30;;;;;;;3.35;74.29;99833.66;104968;1273;59295;-69
2022/01/19 13:40:10;;;;;;;13.70;7.20;;;;;;;3.27;74.76;99835.45;105123;1273;59845;-70
2022/01/19 13:43:11;;;;;;;14.50;7.20;;;;;;;3.20;75.26;99825.85;104924;1273;73029;-69
2022/01/19 13:46:12;;;;;;;15.90;7.70;;;;;;;3.15;75.63;99817.19;105065;1273;67342;-69
2022/01/19 13:49:05;;;;;;;18.10;7.80;;;;;;;3.06;76.20;99814.60;105397;1274;73423;-69
2022/01/19 13:51:54;;;;;;;15.20;7.10;;;;;;;2.99;76.57;99815.48;105057;1272;59292;-70
2022/01/19 13:54:42;;;;;;;16.10;7.80;;;;;;;2.94;77.01;99805.77;104646;1273;61118;-70
2022/01/19 13:57:36;;;;;;;18.70;8.20;;;;;;;2.89;77.50;99805.48;105055;1274;72984;-70
2022/01/19 14:00:25;;;;;;;16.90;8.20;;;;;;;2.83;77.69;99792.11;105132;1273;67781;-69
2022/01/19 14:03:14;;;;;;;16.90;7.50;;;;;;;2.77;78.02;99789.60;104787;1273;71630;-70
2022/01/19 14:06:04;;;;;;;16.50;7.70;;;;;;;2.71;78.14;99782.88;104800;1273;59307;-70
2022/01/19 14:09:06;;;;;;;18.40;8.70;;;;;;;2.65;78.46;99774.43;104744;1273;59407;-69
2022/01/19 14:12:13;;;;;;;15.20;7.30;;;;;;;2.60;78.72;99762.23;105197;1274;71913;-69
2022/01/19 14:15:05;;;;;;;18.60;8.40;;;;;;;2.55;79.05;99750.77;105326;1274;68604;-70
2022/01/19 14:18:11;;;;;;;17.60;8.70;;;;;;;2.51;79.34;99743.96;105212;1274;73535;-69
2022/01/19 14:21:08;;;;;;;22.50;10.00;;;;;;;2.48;79.48;99737.08;104928;1273;59401;-70
2022/01/19 14:24:05;;;;;;;19.30;9.10;;;;;;;2.45;79.70;99735.13;104934;1273;59754;-69
2022/01/19 14:26:59;;;;;;;17.30;8.30;;;;;;;2.42;79.89;99736.16;105238;1274;72618;-69
2022/01/19 14:30:14;;;;;;;19.30;9.00;;;;;;;2.38;79.99;99721.29;105006;1274;66348;-69
2022/01/19 14:33:15;;;;;;;21.20;9.70;;;;;;;2.34;80.69;99712.90;104735;1279;72324;-69
2022/01/19 14:36:07;;;;;;;22.10;9.60;;;;;;;2.32;80.71;99707.04;104435;1279;59449;-69
2022/01/19 14:38:59;;;;;;;20.30;9.20;;;;;;;2.30;80.83;99700.48;104292;1279;60585;-69
2022/01/19 14:41:54;;;;;;;22.70;9.10;;;;;;;2.28;81.00;99696.05;104426;1279;72838;-69
2022/01/19 14:44:48;;;;;;;20.80;8.80;;;;;;;2.25;81.30;99689.20;104227;1279;68289;-68
2022/01/19 14:47:37;;;;;;;17.80;8.10;;;;;;;2.21;81.49;99677.83;104345;1279;73190;-69
2022/01/19 14:50:36;;;;;;;19.70;8.30;;;;;;;2.18;81.48;99674.11;104220;1279;59368;-69
2022/01/19 14:53:27;;;;;;;17.50;8.00;;;;;;;2.19;81.42;99664.65;104929;1279;59568;-69
2022/01/19 14:56:17;;;;;;;17.70;7.50;;;;;;;2.20;81.27;99659.11;104139;1279;71224;-69
2022/01/19 14:59:11;;;;;;;18.30;7.90;;;;;;;2.21;80.98;99649.28;104362;1279;67561;-68
2022/01/19 15:02:01;;;;;;;17.20;7.60;;;;;;;2.20;81.05;99636.02;104340;1277;72205;-68